sensor_id;sensor_type;location;lat;lon;timestamp;temperature;humidity
30594;DHT22;33199;47.590;8.300;2022-07-22T00:01:26;26.50;50.60
30594;DHT22;33199;47.590;8.300;2022-07-22T00:03:51;26.50;50.60
30594;DHT22;33199;47.590;8.300;2022-07-22T00:06:17;26.50;51.20
30594;DHT22;33199;47.590;8.300;2022-07-22T00:08:43;26.50;50.60
30594;DHT22;33199;47.590;8.300;2022-07-22T00:11:08;26.40;50.60
30594;DHT22;33199;47.590;8.300;2022-07-22T00:13:34;26.40;50.60
30594;DHT22;33199;47.590;8.300;2022-07-22T00:15:59;26.40;50.60
30594;DHT22;33199;47.590;8.300;2022-07-22T00:18:25;26.40;50.60
30594;DHT22;33199;47.590;8.300;2022-07-22T00:20:51;26.40;50.60
30594;DHT22;33199;47.590;8.300;2022-07-22T00:23:16;26.40;50.60
30594;DHT22;33199;47.590;8.300;2022-07-22T00:25:42;26.40;50.60
30594;DHT22;33199;47.590;8.300;2022-07-22T00:28:07;26.40;50.60
30594;DHT22;33199;47.590;8.300;2022-07-22T00:30:33;26.40;50.60
30594;DHT22;33199;47.590;8.300;2022-07-22T00:32:59;26.40;50.70
30594;DHT22;33199;47.590;8.300;2022-07-22T00:35:25;26.40;50.70
30594;DHT22;33199;47.590;8.300;2022-07-22T00:37:50;26.40;50.70
30594;DHT22;33199;47.590;8.300;2022-07-22T00:40:16;26.40;50.70
30594;DHT22;33199;47.590;8.300;2022-07-22T00:42:42;26.40;51.20
30594;DHT22;33199;47.590;8.300;2022-07-22T00:45:08;26.40;50.70
30594;DHT22;33199;47.590;8.300;2022-07-22T00:47:34;26.40;50.70
30594;DHT22;33199;47.590;8.300;2022-07-22T00:50:00;26.40;50.70
30594;DHT22;33199;47.590;8.300;2022-07-22T00:52:27;26.40;50.70
30594;DHT22;33199;47.590;8.300;2022-07-22T00:54:52;26.30;50.70
30594;DHT22;33199;47.590;8.300;2022-07-22T00:57:18;26.40;51.30
30594;DHT22;33199;47.590;8.300;2022-07-22T00:59:44;26.30;50.70
30594;DHT22;33199;47.590;8.300;2022-07-22T01:02:10;26.30;50.70
30594;DHT22;33199;47.590;8.300;2022-07-22T01:04:36;26.30;50.70
30594;DHT22;33199;47.590;8.300;2022-07-22T01:07:02;26.30;50.70
30594;DHT22;33199;47.590;8.300;2022-07-22T01:09:27;26.30;50.70
30594;DHT22;33199;47.590;8.300;2022-07-22T01:11:53;26.30;50.70
30594;DHT22;33199;47.590;8.300;2022-07-22T01:14:19;26.30;50.70
30594;DHT22;33199;47.590;8.300;2022-07-22T01:16:44;26.30;50.80
30594;DHT22;33199;47.590;8.300;2022-07-22T01:19:10;26.30;50.80
30594;DHT22;33199;47.590;8.300;2022-07-22T01:21:36;26.30;50.80
30594;DHT22;33199;47.590;8.300;2022-07-22T01:24:02;26.30;50.80
30594;DHT22;33199;47.590;8.300;2022-07-22T01:26:28;26.20;50.70
30594;DHT22;33199;47.590;8.300;2022-07-22T01:28:54;26.20;50.70
30594;DHT22;33199;47.590;8.300;2022-07-22T01:31:19;26.20;50.70
30594;DHT22;33199;47.590;8.300;2022-07-22T01:33:45;26.20;50.70
30594;DHT22;33199;47.590;8.300;2022-07-22T01:36:11;26.20;50.70
30594;DHT22;33199;47.590;8.300;2022-07-22T01:38:37;26.20;50.70
30594;DHT22;33199;47.590;8.300;2022-07-22T01:41:03;26.20;50.70
30594;DHT22;33199;47.590;8.300;2022-07-22T01:43:28;26.20;50.70
30594;DHT22;33199;47.590;8.300;2022-07-22T01:45:54;26.20;50.80
30594;DHT22;33199;47.590;8.300;2022-07-22T01:48:21;26.20;50.70
30594;DHT22;33199;47.590;8.300;2022-07-22T01:50:51;26.10;50.70
30594;DHT22;33199;47.590;8.300;2022-07-22T01:53:17;26.20;50.80
30594;DHT22;33199;47.590;8.300;2022-07-22T01:55:43;26.20;50.80
30594;DHT22;33199;47.590;8.300;2022-07-22T01:58:09;26.10;50.80
30594;DHT22;33199;47.590;8.300;2022-07-22T02:00:35;26.10;50.70
30594;DHT22;33199;47.590;8.300;2022-07-22T02:03:02;26.10;50.70
30594;DHT22;33199;47.590;8.300;2022-07-22T02:05:28;26.10;50.80
30594;DHT22;33199;47.590;8.300;2022-07-22T02:08:02;26.10;50.70
30594;DHT22;33199;47.590;8.300;2022-07-22T02:10:28;26.10;50.80
30594;DHT22;33199;47.590;8.300;2022-07-22T02:12:55;26.10;50.80
30594;DHT22;33199;47.590;8.300;2022-07-22T02:15:20;26.10;50.70
30594;DHT22;33199;47.590;8.300;2022-07-22T02:17:46;26.10;50.80
30594;DHT22;33199;47.590;8.300;2022-07-22T02:20:11;26.10;50.70
30594;DHT22;33199;47.590;8.300;2022-07-22T02:22:37;26.10;50.80
30594;DHT22;33199;47.590;8.300;2022-07-22T02:25:03;26.10;50.80
30594;DHT22;33199;47.590;8.300;2022-07-22T02:27:28;26.10;50.80
30594;DHT22;33199;47.590;8.300;2022-07-22T02:29:54;26.10;50.80
30594;DHT22;33199;47.590;8.300;2022-07-22T02:32:20;26.00;50.70
30594;DHT22;33199;47.590;8.300;2022-07-22T02:34:45;26.10;50.80
30594;DHT22;33199;47.590;8.300;2022-07-22T02:37:11;26.00;50.70
30594;DHT22;33199;47.590;8.300;2022-07-22T02:39:37;26.00;50.70
30594;DHT22;33199;47.590;8.300;2022-07-22T02:42:02;26.00;50.80
30594;DHT22;33199;47.590;8.300;2022-07-22T02:44:28;26.00;50.80
30594;DHT22;33199;47.590;8.300;2022-07-22T02:46:53;26.00;50.70
30594;DHT22;33199;47.590;8.300;2022-07-22T02:49:19;26.00;50.70
30594;DHT22;33199;47.590;8.300;2022-07-22T02:51:45;26.00;50.70
30594;DHT22;33199;47.590;8.300;2022-07-22T02:54:10;26.00;50.70
30594;DHT22;33199;47.590;8.300;2022-07-22T02:56:36;26.00;50.70
30594;DHT22;33199;47.590;8.300;2022-07-22T02:59:01;26.00;50.80
30594;DHT22;33199;47.590;8.300;2022-07-22T03:01:27;26.00;50.80
30594;DHT22;33199;47.590;8.300;2022-07-22T03:03:53;26.00;50.70
30594;DHT22;33199;47.590;8.300;2022-07-22T03:06:18;25.90;50.70
30594;DHT22;33199;47.590;8.300;2022-07-22T03:08:44;25.90;50.70
30594;DHT22;33199;47.590;8.300;2022-07-22T03:11:09;25.90;50.80
30594;DHT22;33199;47.590;8.300;2022-07-22T03:13:35;25.90;50.70
30594;DHT22;33199;47.590;8.300;2022-07-22T03:16:00;25.90;50.70
30594;DHT22;33199;47.590;8.300;2022-07-22T03:18:26;25.90;50.70
30594;DHT22;33199;47.590;8.300;2022-07-22T03:20:52;25.90;50.70
30594;DHT22;33199;47.590;8.300;2022-07-22T03:23:17;25.90;50.80
30594;DHT22;33199;47.590;8.300;2022-07-22T03:25:43;25.90;50.70
30594;DHT22;33199;47.590;8.300;2022-07-22T03:28:08;25.80;50.70
30594;DHT22;33199;47.590;8.300;2022-07-22T03:30:34;25.90;50.80
30594;DHT22;33199;47.590;8.300;2022-07-22T03:33:00;25.80;50.70
30594;DHT22;33199;47.590;8.300;2022-07-22T03:35:25;25.80;50.70
30594;DHT22;33199;47.590;8.300;2022-07-22T03:37:51;25.80;50.70
30594;DHT22;33199;47.590;8.300;2022-07-22T03:40:17;25.80;50.80
30594;DHT22;33199;47.590;8.300;2022-07-22T03:42:42;25.90;50.70
30594;DHT22;33199;47.590;8.300;2022-07-22T03:45:09;25.80;50.70
30594;DHT22;33199;47.590;8.300;2022-07-22T03:47:35;25.80;50.70
30594;DHT22;33199;47.590;8.300;2022-07-22T03:50:01;25.80;50.80
30594;DHT22;33199;47.590;8.300;2022-07-22T03:52:28;25.80;50.70
30594;DHT22;33199;47.590;8.300;2022-07-22T03:54:54;25.80;50.70
30594;DHT22;33199;47.590;8.300;2022-07-22T03:57:19;25.80;50.80
30594;DHT22;33199;47.590;8.300;2022-07-22T03:59:45;25.80;50.70
30594;DHT22;33199;47.590;8.300;2022-07-22T04:02:11;25.80;50.80
30594;DHT22;33199;47.590;8.300;2022-07-22T04:04:36;25.80;50.80
30594;DHT22;33199;47.590;8.300;2022-07-22T04:07:02;25.80;50.80
30594;DHT22;33199;47.590;8.300;2022-07-22T04:09:27;25.70;49.00
30594;DHT22;33199;47.590;8.300;2022-07-22T04:11:53;25.40;49.10
30594;DHT22;33199;47.590;8.300;2022-07-22T04:14:19;25.20;49.90
30594;DHT22;33199;47.590;8.300;2022-07-22T04:16:45;25.20;50.10
30594;DHT22;33199;47.590;8.300;2022-07-22T04:19:11;25.20;50.20
30594;DHT22;33199;47.590;8.300;2022-07-22T04:21:36;25.20;50.20
30594;DHT22;33199;47.590;8.300;2022-07-22T04:24:02;25.20;50.30
30594;DHT22;33199;47.590;8.300;2022-07-22T04:26:28;25.20;50.20
30594;DHT22;33199;47.590;8.300;2022-07-22T04:28:54;25.20;50.20
30594;DHT22;33199;47.590;8.300;2022-07-22T04:31:19;25.20;50.20
30594;DHT22;33199;47.590;8.300;2022-07-22T04:33:45;25.30;50.20
30594;DHT22;33199;47.590;8.300;2022-07-22T04:36:11;25.30;50.20
30594;DHT22;33199;47.590;8.300;2022-07-22T04:38:36;25.30;50.30
30594;DHT22;33199;47.590;8.300;2022-07-22T04:41:02;25.30;50.30
30594;DHT22;33199;47.590;8.300;2022-07-22T04:43:27;25.30;50.30
30594;DHT22;33199;47.590;8.300;2022-07-22T04:45:54;25.30;50.30
30594;DHT22;33199;47.590;8.300;2022-07-22T04:48:20;25.30;50.30
30594;DHT22;33199;47.590;8.300;2022-07-22T04:50:45;25.30;50.40
30594;DHT22;33199;47.590;8.300;2022-07-22T04:53:11;25.30;50.40
30594;DHT22;33199;47.590;8.300;2022-07-22T04:55:37;25.30;50.40
30594;DHT22;33199;47.590;8.300;2022-07-22T04:58:02;25.30;50.50
30594;DHT22;33199;47.590;8.300;2022-07-22T05:00:28;25.30;50.50
30594;DHT22;33199;47.590;8.300;2022-07-22T05:02:54;25.30;50.50
30594;DHT22;33199;47.590;8.300;2022-07-22T05:05:20;25.30;50.50
30594;DHT22;33199;47.590;8.300;2022-07-22T05:07:46;25.30;50.50
30594;DHT22;33199;47.590;8.300;2022-07-22T05:10:11;25.30;50.60
30594;DHT22;33199;47.590;8.300;2022-07-22T05:12:37;25.30;50.60
30594;DHT22;33199;47.590;8.300;2022-07-22T05:15:03;25.30;50.60
30594;DHT22;33199;47.590;8.300;2022-07-22T05:17:29;25.30;50.60
30594;DHT22;33199;47.590;8.300;2022-07-22T05:19:55;25.30;50.60
30594;DHT22;33199;47.590;8.300;2022-07-22T05:22:21;25.30;50.60
30594;DHT22;33199;47.590;8.300;2022-07-22T05:24:46;25.30;50.60
30594;DHT22;33199;47.590;8.300;2022-07-22T05:27:12;25.30;50.60
30594;DHT22;33199;47.590;8.300;2022-07-22T05:29:37;25.30;51.30
30594;DHT22;33199;47.590;8.300;2022-07-22T05:32:03;25.30;50.70
30594;DHT22;33199;47.590;8.300;2022-07-22T05:34:29;25.30;50.70
30594;DHT22;33199;47.590;8.300;2022-07-22T05:36:54;25.30;50.70
30594;DHT22;33199;47.590;8.300;2022-07-22T05:39:20;25.30;50.70
30594;DHT22;33199;47.590;8.300;2022-07-22T05:41:46;25.30;50.80
30594;DHT22;33199;47.590;8.300;2022-07-22T05:44:12;25.20;50.70
30594;DHT22;33199;47.590;8.300;2022-07-22T05:46:38;25.20;50.80
30594;DHT22;33199;47.590;8.300;2022-07-22T05:49:03;25.20;50.90
30594;DHT22;33199;47.590;8.300;2022-07-22T05:51:29;25.20;50.80
30594;DHT22;33199;47.590;8.300;2022-07-22T05:53:54;25.20;50.80
30594;DHT22;33199;47.590;8.300;2022-07-22T05:56:20;25.20;50.80
30594;DHT22;33199;47.590;8.300;2022-07-22T05:58:45;25.20;50.80
30594;DHT22;33199;47.590;8.300;2022-07-22T06:01:11;25.20;50.80
30594;DHT22;33199;47.590;8.300;2022-07-22T06:03:37;25.20;50.90
30594;DHT22;33199;47.590;8.300;2022-07-22T06:06:04;25.20;50.90
30594;DHT22;33199;47.590;8.300;2022-07-22T06:08:31;25.20;50.80
30594;DHT22;33199;47.590;8.300;2022-07-22T06:10:57;25.20;50.80
30594;DHT22;33199;47.590;8.300;2022-07-22T06:13:23;25.20;51.00
30594;DHT22;33199;47.590;8.300;2022-07-22T06:15:49;25.20;50.90
30594;DHT22;33199;47.590;8.300;2022-07-22T06:18:14;25.20;50.90
30594;DHT22;33199;47.590;8.300;2022-07-22T06:20:40;25.20;50.90
30594;DHT22;33199;47.590;8.300;2022-07-22T06:23:06;25.10;51.00
30594;DHT22;33199;47.590;8.300;2022-07-22T06:25:31;25.10;50.90
30594;DHT22;33199;47.590;8.300;2022-07-22T06:27:57;25.10;50.80
30594;DHT22;33199;47.590;8.300;2022-07-22T06:30:23;25.10;50.90
30594;DHT22;33199;47.590;8.300;2022-07-22T06:32:49;25.10;50.70
30594;DHT22;33199;47.590;8.300;2022-07-22T06:35:14;25.10;50.90
30594;DHT22;33199;47.590;8.300;2022-07-22T06:37:40;25.10;50.90
30594;DHT22;33199;47.590;8.300;2022-07-22T06:40:06;25.20;50.90
30594;DHT22;33199;47.590;8.300;2022-07-22T06:42:31;25.10;51.00
30594;DHT22;33199;47.590;8.300;2022-07-22T06:44:57;25.10;51.00
30594;DHT22;33199;47.590;8.300;2022-07-22T06:47:22;25.10;50.90
30594;DHT22;33199;47.590;8.300;2022-07-22T06:49:48;25.10;50.90
30594;DHT22;33199;47.590;8.300;2022-07-22T06:52:13;25.10;51.00
30594;DHT22;33199;47.590;8.300;2022-07-22T06:54:39;25.10;51.00
30594;DHT22;33199;47.590;8.300;2022-07-22T06:57:05;25.10;51.00
30594;DHT22;33199;47.590;8.300;2022-07-22T06:59:30;25.10;51.00
30594;DHT22;33199;47.590;8.300;2022-07-22T07:01:56;25.10;51.00
30594;DHT22;33199;47.590;8.300;2022-07-22T07:04:21;25.10;51.00
30594;DHT22;33199;47.590;8.300;2022-07-22T07:06:47;25.10;51.50
30594;DHT22;33199;47.590;8.300;2022-07-22T07:09:12;25.10;50.90
30594;DHT22;33199;47.590;8.300;2022-07-22T07:11:38;25.10;50.90
30594;DHT22;33199;47.590;8.300;2022-07-22T07:14:03;25.10;50.90
30594;DHT22;33199;47.590;8.300;2022-07-22T07:16:29;25.10;50.90
30594;DHT22;33199;47.590;8.300;2022-07-22T07:18:55;25.00;50.90
30594;DHT22;33199;47.590;8.300;2022-07-22T07:21:21;25.10;51.00
30594;DHT22;33199;47.590;8.300;2022-07-22T07:23:46;25.10;51.00
30594;DHT22;33199;47.590;8.300;2022-07-22T07:26:12;25.00;50.90
30594;DHT22;33199;47.590;8.300;2022-07-22T07:28:38;25.00;50.90
30594;DHT22;33199;47.590;8.300;2022-07-22T07:31:04;25.10;50.90
30594;DHT22;33199;47.590;8.300;2022-07-22T07:33:30;25.00;50.90
30594;DHT22;33199;47.590;8.300;2022-07-22T07:35:56;25.00;50.90
30594;DHT22;33199;47.590;8.300;2022-07-22T07:38:21;25.10;50.90
30594;DHT22;33199;47.590;8.300;2022-07-22T07:40:47;25.00;50.90
30594;DHT22;33199;47.590;8.300;2022-07-22T07:43:12;25.00;50.90
30594;DHT22;33199;47.590;8.300;2022-07-22T07:45:38;25.00;50.90
30594;DHT22;33199;47.590;8.300;2022-07-22T07:48:04;25.00;50.90
30594;DHT22;33199;47.590;8.300;2022-07-22T07:50:30;25.00;51.00
30594;DHT22;33199;47.590;8.300;2022-07-22T07:52:56;25.00;51.00
30594;DHT22;33199;47.590;8.300;2022-07-22T07:55:22;25.00;50.90
30594;DHT22;33199;47.590;8.300;2022-07-22T07:57:49;25.00;51.00
30594;DHT22;33199;47.590;8.300;2022-07-22T08:00:17;25.00;51.00
30594;DHT22;33199;47.590;8.300;2022-07-22T08:02:43;25.00;51.60
30594;DHT22;33199;47.590;8.300;2022-07-22T08:05:09;25.00;51.00
30594;DHT22;33199;47.590;8.300;2022-07-22T08:07:35;25.00;51.00
30594;DHT22;33199;47.590;8.300;2022-07-22T08:10:02;25.00;51.00
30594;DHT22;33199;47.590;8.300;2022-07-22T08:12:29;25.00;51.00
30594;DHT22;33199;47.590;8.300;2022-07-22T08:14:55;25.00;51.00
30594;DHT22;33199;47.590;8.300;2022-07-22T08:17:20;25.00;51.00
30594;DHT22;33199;47.590;8.300;2022-07-22T08:19:46;25.00;51.00
30594;DHT22;33199;47.590;8.300;2022-07-22T08:22:11;25.00;51.00
30594;DHT22;33199;47.590;8.300;2022-07-22T08:24:37;25.00;51.00
30594;DHT22;33199;47.590;8.300;2022-07-22T08:27:03;25.00;51.00
30594;DHT22;33199;47.590;8.300;2022-07-22T08:29:28;25.00;51.00
30594;DHT22;33199;47.590;8.300;2022-07-22T08:31:54;25.00;51.00
30594;DHT22;33199;47.590;8.300;2022-07-22T08:34:19;25.00;51.00
30594;DHT22;33199;47.590;8.300;2022-07-22T08:36:45;25.00;51.00
30594;DHT22;33199;47.590;8.300;2022-07-22T08:39:11;25.00;51.00
30594;DHT22;33199;47.590;8.300;2022-07-22T08:41:38;25.00;51.00
30594;DHT22;33199;47.590;8.300;2022-07-22T08:44:05;25.00;51.00
30594;DHT22;33199;47.590;8.300;2022-07-22T08:46:31;25.00;51.00
30594;DHT22;33199;47.590;8.300;2022-07-22T08:48:58;25.00;51.00
30594;DHT22;33199;47.590;8.300;2022-07-22T08:51:26;25.00;51.00
30594;DHT22;33199;47.590;8.300;2022-07-22T08:53:52;25.00;51.20
30594;DHT22;33199;47.590;8.300;2022-07-22T08:56:18;25.20;51.90
30594;DHT22;33199;47.590;8.300;2022-07-22T08:58:44;25.30;51.70
30594;DHT22;33199;47.590;8.300;2022-07-22T09:01:12;25.30;51.40
30594;DHT22;33199;47.590;8.300;2022-07-22T09:03:50;25.30;51.30
30594;DHT22;33199;47.590;8.300;2022-07-22T09:06:20;25.30;51.20
30594;DHT22;33199;47.590;8.300;2022-07-22T09:09:04;25.30;51.20
30594;DHT22;33199;47.590;8.300;2022-07-22T09:11:31;25.30;51.20
30594;DHT22;33199;47.590;8.300;2022-07-22T09:13:58;25.20;51.10
30594;DHT22;33199;47.590;8.300;2022-07-22T09:16:43;25.20;51.20
30594;DHT22;33199;47.590;8.300;2022-07-22T09:19:10;25.20;51.30
30594;DHT22;33199;47.590;8.300;2022-07-22T09:21:38;25.20;51.30
30594;DHT22;33199;47.590;8.300;2022-07-22T09:24:04;25.20;51.40
30594;DHT22;33199;47.590;8.300;2022-07-22T09:26:36;25.10;51.40
30594;DHT22;33199;47.590;8.300;2022-07-22T09:29:03;25.10;51.50
30594;DHT22;33199;47.590;8.300;2022-07-22T09:31:36;25.10;51.30
30594;DHT22;33199;47.590;8.300;2022-07-22T09:34:03;25.10;51.40
30594;DHT22;33199;47.590;8.300;2022-07-22T09:36:29;25.10;51.30
30594;DHT22;33199;47.590;8.300;2022-07-22T09:38:55;25.10;51.40
30594;DHT22;33199;47.590;8.300;2022-07-22T09:41:21;25.10;51.40
30594;DHT22;33199;47.590;8.300;2022-07-22T09:43:47;25.10;51.30
30594;DHT22;33199;47.590;8.300;2022-07-22T09:46:13;25.10;51.30
30594;DHT22;33199;47.590;8.300;2022-07-22T09:48:39;25.10;51.40
30594;DHT22;33199;47.590;8.300;2022-07-22T09:51:05;25.10;51.30
30594;DHT22;33199;47.590;8.300;2022-07-22T09:53:32;25.10;51.40
30594;DHT22;33199;47.590;8.300;2022-07-22T09:56:00;25.10;51.30
30594;DHT22;33199;47.590;8.300;2022-07-22T09:58:27;25.10;51.30
30594;DHT22;33199;47.590;8.300;2022-07-22T10:00:53;25.10;51.30
30594;DHT22;33199;47.590;8.300;2022-07-22T10:03:29;25.10;51.30
30594;DHT22;33199;47.590;8.300;2022-07-22T10:05:56;25.10;51.40
30594;DHT22;33199;47.590;8.300;2022-07-22T10:08:24;25.10;51.30
30594;DHT22;33199;47.590;8.300;2022-07-22T10:10:52;25.10;51.30
30594;DHT22;33199;47.590;8.300;2022-07-22T10:13:18;25.10;51.30
30594;DHT22;33199;47.590;8.300;2022-07-22T10:15:44;25.10;51.30
30594;DHT22;33199;47.590;8.300;2022-07-22T10:18:15;25.10;51.30
30594;DHT22;33199;47.590;8.300;2022-07-22T10:20:41;25.10;51.40
30594;DHT22;33199;47.590;8.300;2022-07-22T10:23:08;25.10;51.40
30594;DHT22;33199;47.590;8.300;2022-07-22T10:25:55;25.10;51.40
30594;DHT22;33199;47.590;8.300;2022-07-22T10:28:27;25.20;51.40
30594;DHT22;33199;47.590;8.300;2022-07-22T10:31:07;25.10;51.40
30594;DHT22;33199;47.590;8.300;2022-07-22T10:33:39;25.10;51.50
30594;DHT22;33199;47.590;8.300;2022-07-22T10:36:05;25.10;51.40
30594;DHT22;33199;47.590;8.300;2022-07-22T10:38:32;25.10;51.30
30594;DHT22;33199;47.590;8.300;2022-07-22T10:43:25;25.20;51.30
30594;DHT22;33199;47.590;8.300;2022-07-22T10:45:53;25.20;51.40
30594;DHT22;33199;47.590;8.300;2022-07-22T10:48:21;25.20;51.30
30594;DHT22;33199;47.590;8.300;2022-07-22T10:50:50;25.20;51.30
30594;DHT22;33199;47.590;8.300;2022-07-22T10:56:00;25.20;51.20
30594;DHT22;33199;47.590;8.300;2022-07-22T11:01:02;25.20;51.40
30594;DHT22;33199;47.590;8.300;2022-07-22T11:03:32;25.20;51.30
30594;DHT22;33199;47.590;8.300;2022-07-22T11:08:38;25.30;51.40
30594;DHT22;33199;47.590;8.300;2022-07-22T11:11:04;25.30;51.20
30594;DHT22;33199;47.590;8.300;2022-07-22T11:13:41;25.30;51.40
30594;DHT22;33199;47.590;8.300;2022-07-22T11:16:33;25.30;51.40
30594;DHT22;33199;47.590;8.300;2022-07-22T11:19:01;25.30;51.30
30594;DHT22;33199;47.590;8.300;2022-07-22T11:21:28;25.30;51.40
30594;DHT22;33199;47.590;8.300;2022-07-22T11:23:56;25.20;51.20
30594;DHT22;33199;47.590;8.300;2022-07-22T11:26:34;25.30;51.40
30594;DHT22;33199;47.590;8.300;2022-07-22T11:29:01;25.30;51.50
30594;DHT22;33199;47.590;8.300;2022-07-22T11:31:26;25.30;51.30
30594;DHT22;33199;47.590;8.300;2022-07-22T11:34:04;25.30;51.40
30594;DHT22;33199;47.590;8.300;2022-07-22T11:36:32;25.30;51.20
30594;DHT22;33199;47.590;8.300;2022-07-22T11:38:58;25.30;51.50
30594;DHT22;33199;47.590;8.300;2022-07-22T11:41:23;25.30;51.40
30594;DHT22;33199;47.590;8.300;2022-07-22T11:43:50;25.30;51.50
30594;DHT22;33199;47.590;8.300;2022-07-22T11:46:17;25.30;51.50
30594;DHT22;33199;47.590;8.300;2022-07-22T11:48:43;25.40;51.50
30594;DHT22;33199;47.590;8.300;2022-07-22T11:51:11;25.30;51.40
30594;DHT22;33199;47.590;8.300;2022-07-22T11:53:38;25.30;51.40
30594;DHT22;33199;47.590;8.300;2022-07-22T11:56:06;25.40;51.50
30594;DHT22;33199;47.590;8.300;2022-07-22T11:58:47;25.40;51.50
30594;DHT22;33199;47.590;8.300;2022-07-22T12:01:16;25.40;51.40
30594;DHT22;33199;47.590;8.300;2022-07-22T12:03:51;25.40;51.50
30594;DHT22;33199;47.590;8.300;2022-07-22T12:06:18;25.40;51.50
30594;DHT22;33199;47.590;8.300;2022-07-22T12:08:55;25.40;51.50
30594;DHT22;33199;47.590;8.300;2022-07-22T12:11:22;25.40;51.40
30594;DHT22;33199;47.590;8.300;2022-07-22T12:13:49;25.40;51.50
30594;DHT22;33199;47.590;8.300;2022-07-22T12:16:27;25.40;51.40
30594;DHT22;33199;47.590;8.300;2022-07-22T12:18:56;25.50;51.30
30594;DHT22;33199;47.590;8.300;2022-07-22T12:21:23;25.40;51.30
30594;DHT22;33199;47.590;8.300;2022-07-22T12:24:01;25.40;51.40
30594;DHT22;33199;47.590;8.300;2022-07-22T12:34:14;25.50;51.30
30594;DHT22;33199;47.590;8.300;2022-07-22T12:36:46;25.50;51.20
30594;DHT22;33199;47.590;8.300;2022-07-22T12:39:17;25.50;51.40
30594;DHT22;33199;47.590;8.300;2022-07-22T12:41:48;25.50;51.20
30594;DHT22;33199;47.590;8.300;2022-07-22T12:44:22;25.50;51.20
30594;DHT22;33199;47.590;8.300;2022-07-22T12:46:51;25.50;51.20
30594;DHT22;33199;47.590;8.300;2022-07-22T12:49:19;25.60;51.30
30594;DHT22;33199;47.590;8.300;2022-07-22T12:52:11;25.50;51.20
30594;DHT22;33199;47.590;8.300;2022-07-22T12:54:39;25.50;51.20
30594;DHT22;33199;47.590;8.300;2022-07-22T12:57:07;25.50;51.20
30594;DHT22;33199;47.590;8.300;2022-07-22T12:59:34;25.60;51.80
30594;DHT22;33199;47.590;8.300;2022-07-22T13:02:00;25.60;51.30
30594;DHT22;33199;47.590;8.300;2022-07-22T13:04:25;25.60;51.30
30594;DHT22;33199;47.590;8.300;2022-07-22T13:06:51;25.60;51.30
30594;DHT22;33199;47.590;8.300;2022-07-22T13:09:16;25.60;51.30
30594;DHT22;33199;47.590;8.300;2022-07-22T13:11:42;25.60;51.30
30594;DHT22;33199;47.590;8.300;2022-07-22T13:14:12;25.70;51.30
30594;DHT22;33199;47.590;8.300;2022-07-22T13:16:39;25.60;51.30
30594;DHT22;33199;47.590;8.300;2022-07-22T13:19:04;25.70;51.30
30594;DHT22;33199;47.590;8.300;2022-07-22T13:21:30;25.70;51.30
30594;DHT22;33199;47.590;8.300;2022-07-22T13:23:55;25.70;51.30
30594;DHT22;33199;47.590;8.300;2022-07-22T13:26:21;25.70;51.30
30594;DHT22;33199;47.590;8.300;2022-07-22T13:28:47;25.70;51.30
30594;DHT22;33199;47.590;8.300;2022-07-22T13:31:12;25.70;51.30
30594;DHT22;33199;47.590;8.300;2022-07-22T13:33:38;25.70;51.30
30594;DHT22;33199;47.590;8.300;2022-07-22T13:36:04;25.80;51.40
30594;DHT22;33199;47.590;8.300;2022-07-22T13:38:30;25.70;51.30
30594;DHT22;33199;47.590;8.300;2022-07-22T13:40:56;25.80;51.40
30594;DHT22;33199;47.590;8.300;2022-07-22T13:43:23;25.70;51.30
30594;DHT22;33199;47.590;8.300;2022-07-22T13:45:49;25.80;51.40
30594;DHT22;33199;47.590;8.300;2022-07-22T13:48:15;25.80;51.40
30594;DHT22;33199;47.590;8.300;2022-07-22T13:50:44;25.80;51.40
30594;DHT22;33199;47.590;8.300;2022-07-22T13:53:09;25.80;51.40
30594;DHT22;33199;47.590;8.300;2022-07-22T13:55:38;25.80;51.40
30594;DHT22;33199;47.590;8.300;2022-07-22T13:58:04;25.80;51.40
30594;DHT22;33199;47.590;8.300;2022-07-22T14:00:31;25.80;51.40
30594;DHT22;33199;47.590;8.300;2022-07-22T14:02:57;25.80;51.40
30594;DHT22;33199;47.590;8.300;2022-07-22T14:05:23;25.90;51.40
30594;DHT22;33199;47.590;8.300;2022-07-22T14:07:48;25.90;51.40
30594;DHT22;33199;47.590;8.300;2022-07-22T14:10:14;25.80;51.40
30594;DHT22;33199;47.590;8.300;2022-07-22T14:12:40;25.90;51.40
30594;DHT22;33199;47.590;8.300;2022-07-22T14:15:07;25.90;51.40
30594;DHT22;33199;47.590;8.300;2022-07-22T14:17:33;25.90;51.40
30594;DHT22;33199;47.590;8.300;2022-07-22T14:19:59;25.90;51.40
30594;DHT22;33199;47.590;8.300;2022-07-22T14:22:25;25.90;51.40
30594;DHT22;33199;47.590;8.300;2022-07-22T14:24:51;25.90;51.40
30594;DHT22;33199;47.590;8.300;2022-07-22T14:27:16;25.90;51.40
30594;DHT22;33199;47.590;8.300;2022-07-22T14:29:42;25.90;51.40
30594;DHT22;33199;47.590;8.300;2022-07-22T14:32:08;25.90;51.40
30594;DHT22;33199;47.590;8.300;2022-07-22T14:34:33;26.00;51.50
30594;DHT22;33199;47.590;8.300;2022-07-22T14:36:59;25.90;51.40
30594;DHT22;33199;47.590;8.300;2022-07-22T14:39:24;26.00;51.50
30594;DHT22;33199;47.590;8.300;2022-07-22T14:41:50;26.00;51.40
30594;DHT22;33199;47.590;8.300;2022-07-22T14:44:15;26.00;51.50
30594;DHT22;33199;47.590;8.300;2022-07-22T14:46:41;26.00;51.50
30594;DHT22;33199;47.590;8.300;2022-07-22T14:49:07;26.00;51.50
30594;DHT22;33199;47.590;8.300;2022-07-22T14:51:32;26.00;51.50
30594;DHT22;33199;47.590;8.300;2022-07-22T14:53:58;26.00;51.50
30594;DHT22;33199;47.590;8.300;2022-07-22T14:56:23;26.00;51.50
30594;DHT22;33199;47.590;8.300;2022-07-22T14:58:49;26.00;51.40
30594;DHT22;33199;47.590;8.300;2022-07-22T15:01:15;26.10;51.50
30594;DHT22;33199;47.590;8.300;2022-07-22T15:03:40;26.10;51.40
30594;DHT22;33199;47.590;8.300;2022-07-22T15:06:06;26.10;51.50
30594;DHT22;33199;47.590;8.300;2022-07-22T15:08:32;26.10;51.40
30594;DHT22;33199;47.590;8.300;2022-07-22T15:10:57;26.10;51.50
30594;DHT22;33199;47.590;8.300;2022-07-22T15:13:25;26.10;51.50
30594;DHT22;33199;47.590;8.300;2022-07-22T15:15:51;26.10;51.40
30594;DHT22;33199;47.590;8.300;2022-07-22T15:18:16;26.10;51.50
30594;DHT22;33199;47.590;8.300;2022-07-22T15:20:42;26.10;51.50
30594;DHT22;33199;47.590;8.300;2022-07-22T15:23:08;26.10;51.40
30594;DHT22;33199;47.590;8.300;2022-07-22T15:25:33;26.10;51.40
30594;DHT22;33199;47.590;8.300;2022-07-22T15:28:00;26.10;51.40
30594;DHT22;33199;47.590;8.300;2022-07-22T15:30:26;26.10;51.40
30594;DHT22;33199;47.590;8.300;2022-07-22T15:32:51;26.10;51.40
30594;DHT22;33199;47.590;8.300;2022-07-22T15:35:17;26.10;51.40
30594;DHT22;33199;47.590;8.300;2022-07-22T15:37:43;26.10;51.40
30594;DHT22;33199;47.590;8.300;2022-07-22T15:40:10;26.10;51.40
30594;DHT22;33199;47.590;8.300;2022-07-22T15:42:37;26.20;51.50
30594;DHT22;33199;47.590;8.300;2022-07-22T15:45:04;26.20;51.50